Amity Harbor, New York
Current Conditions -  °F | °C
As of 10:53 PM on Tuesday 21 Oct 2014 (Local Time) from KFRG Reporting Station
Overcast Overcast  
Wind Chill: 56°   Ceiling: 9000
Heat Index: 56°   Visibility: 10mi
Dew Point: 53°   Wind: 5mph
Humidity: 90%   Direction: 30°NNE
Pressure: 29.91"   Gusts: NA
Location:  40.6858°N, 73.4152°W
Report Text: KFRG 220253Z 03004KT 10SM FEW075 OVC090 13/12 A2991 RMK AO2 RAB16E45 SLP129 P0000 60000 T01330117 51014
Loading
Personal Weather Stations






























Interactive Weather Map
Tropical Storm Tracking
New forecast layout! Learn more

10-Day Weather Forecast

Advertisements
Track Severe Weather on mobile